Time;durP1;ratioP1;P1;durP2;ratioP2;P2;SDS_P1;SDS_P2;PMS_P1;PMS_P2;Temp;Humidity;BMP_temperature;BMP_pressure;BME280_temperature;BME280_humidity;BME280_pressure;Samples;Min_cycle;Max_cycle;Signal;HPM_P1;HPM_P2
2022/08/28 00:00:01;;;;;;;;;;;19.90;73.70;;;;;;5132006;27;19920;-65
2022/08/28 00:02:28;;;;;;;;;;;19.90;73.70;;;;;;5129895;27;19923;-66
2022/08/28 00:04:55;;;;;;;;;;;19.80;73.90;;;;;;5131101;27;20028;-64
2022/08/28 00:07:23;;;;;;;;;;;19.90;73.90;;;;;;5134433;27;19919;-65
2022/08/28 00:09:49;;;;;;;;;;;19.80;74.10;;;;;;5126412;27;20335;-65
2022/08/28 00:12:16;;;;;;;;;;;19.80;74.10;;;;;;5137998;27;19919;-65
2022/08/28 00:14:43;;;;;;;;;;;19.70;74.20;;;;;;5131763;27;19964;-66
2022/08/28 00:17:10;;;;;;;;;;;19.70;74.10;;;;;;5127253;27;19919;-66
2022/08/28 00:19:36;;;;;;;;;;;19.70;74.20;;;;;;5140801;27;19919;-66
2022/08/28 00:22:03;;;;;;;;;;;19.60;74.30;;;;;;5135154;27;19935;-66
2022/08/28 00:24:31;;;;;;;;;;;19.60;74.30;;;;;;5133338;27;19923;-66
2022/08/28 00:29:43;;;;;;;;;;;19.60;74.60;;;;;;5130189;27;20432;-66
2022/08/28 00:32:10;;;;;;;;;;;19.60;74.70;;;;;;5123288;27;19955;-65
2022/08/28 00:34:37;;;;;;;;;;;19.50;74.80;;;;;;5132383;27;20588;-66
2022/08/28 00:37:04;;;;;;;;;;;19.50;74.90;;;;;;5133600;27;19919;-65
2022/08/28 00:39:32;;;;;;;;;;;19.40;74.90;;;;;;5126277;27;19919;-66
2022/08/28 00:41:59;;;;;;;;;;;19.40;75.00;;;;;;5131693;27;19923;-65
2022/08/28 00:44:26;;;;;;;;;;;19.40;75.00;;;;;;5125971;27;19926;-65
2022/08/28 00:46:54;;;;;;;;;;;19.40;75.10;;;;;;5129713;27;19919;-64
2022/08/28 00:49:23;;;;;;;;;;;19.40;75.10;;;;;;5132059;27;19925;-67
2022/08/28 00:52:04;;;;;;;;;;;19.30;75.20;;;;;;5125742;27;19930;-66
2022/08/28 00:54:34;;;;;;;;;;;19.30;75.20;;;;;;5122937;27;19927;-64
2022/08/28 00:57:02;;;;;;;;;;;19.30;75.30;;;;;;5123919;27;19925;-65
2022/08/28 00:59:29;;;;;;;;;;;19.30;75.30;;;;;;5128359;27;19919;-66
2022/08/28 01:01:57;;;;;;;;;;;19.30;75.30;;;;;;5129545;27;20304;-66
2022/08/28 01:04:24;;;;;;;;;;;19.30;75.20;;;;;;5130708;27;19931;-65
2022/08/28 01:06:53;;;;;;;;;;;19.30;75.30;;;;;;5126734;27;19919;-67
2022/08/28 01:09:20;;;;;;;;;;;19.30;75.40;;;;;;5128306;27;19928;-66
2022/08/28 01:11:49;;;;;;;;;;;19.30;75.50;;;;;;5133781;27;19924;-65
2022/08/28 01:14:18;;;;;;;;;;;19.30;75.50;;;;;;5121923;27;20006;-65
2022/08/28 01:16:48;;;;;;;;;;;19.20;75.50;;;;;;5132905;27;19927;-65
2022/08/28 01:19:18;;;;;;;;;;;19.20;75.60;;;;;;5128295;27;20378;-64
2022/08/28 01:21:49;;;;;;;;;;;19.20;75.60;;;;;;5121721;27;19919;-65
2022/08/28 01:24:18;;;;;;;;;;;19.20;75.70;;;;;;5132241;27;19926;-66
2022/08/28 01:26:45;;;;;;;;;;;19.20;75.60;;;;;;5130308;27;19923;-65
2022/08/28 01:29:12;;;;;;;;;;;19.20;75.50;;;;;;5129174;27;19919;-64
2022/08/28 01:31:40;;;;;;;;;;;19.20;75.40;;;;;;5132544;27;19919;-64
2022/08/28 01:34:08;;;;;;;;;;;19.10;75.50;;;;;;5132778;27;19919;-65
2022/08/28 01:36:35;;;;;;;;;;;19.10;75.70;;;;;;5133388;27;19919;-64
2022/08/28 01:39:04;;;;;;;;;;;19.10;75.60;;;;;;5130006;27;20384;-65
2022/08/28 01:41:33;;;;;;;;;;;19.10;75.80;;;;;;5129811;27;20376;-64
2022/08/28 01:44:00;;;;;;;;;;;19.10;75.70;;;;;;5132810;27;19972;-65
2022/08/28 01:46:27;;;;;;;;;;;19.10;75.80;;;;;;5131094;27;19919;-65
2022/08/28 01:48:54;;;;;;;;;;;19.00;75.80;;;;;;5133592;27;20418;-64
2022/08/28 01:51:20;;;;;;;;;;;19.00;75.80;;;;;;5132644;27;19980;-65
2022/08/28 01:53:47;;;;;;;;;;;19.00;75.90;;;;;;5125757;27;20326;-66
2022/08/28 01:56:15;;;;;;;;;;;19.00;76.00;;;;;;5130561;27;19934;-64
2022/08/28 01:58:43;;;;;;;;;;;19.00;76.00;;;;;;5132691;27;20128;-66
2022/08/28 02:01:10;;;;;;;;;;;18.90;76.00;;;;;;5124102;27;19973;-65
2022/08/28 02:03:37;;;;;;;;;;;18.90;76.00;;;;;;5125685;27;19919;-65
2022/08/28 02:06:05;;;;;;;;;;;18.90;75.90;;;;;;5133294;27;19980;-64
2022/08/28 02:08:31;;;;;;;;;;;18.90;76.00;;;;;;5127954;27;20316;-64
2022/08/28 02:10:59;;;;;;;;;;;18.90;76.00;;;;;;5127269;27;19965;-64
2022/08/28 02:13:25;;;;;;;;;;;18.90;76.00;;;;;;5128045;27;20308;-65
2022/08/28 02:15:54;;;;;;;;;;;18.90;76.10;;;;;;5132146;27;19920;-65
2022/08/28 02:18:20;;;;;;;;;;;18.90;76.10;;;;;;5129034;27;19919;-64
2022/08/28 02:20:47;;;;;;;;;;;18.80;76.20;;;;;;5125860;27;19927;-67
2022/08/28 02:23:14;;;;;;;;;;;18.80;76.20;;;;;;5129498;27;19919;-64
2022/08/28 02:25:41;;;;;;;;;;;18.90;76.20;;;;;;5129510;27;19925;-66
2022/08/28 02:28:08;;;;;;;;;;;18.80;76.30;;;;;;5128233;27;20369;-64
2022/08/28 02:30:35;;;;;;;;;;;18.90;76.30;;;;;;5130182;27;19919;-64
2022/08/28 02:33:03;;;;;;;;;;;18.90;76.30;;;;;;5131908;27;19933;-64
2022/08/28 02:35:30;;;;;;;;;;;18.90;76.40;;;;;;5132956;27;20276;-65
2022/08/28 02:37:57;;;;;;;;;;;18.90;76.30;;;;;;5130828;27;20393;-64
2022/08/28 02:40:24;;;;;;;;;;;18.80;76.40;;;;;;5127113;27;19974;-65
2022/08/28 02:42:51;;;;;;;;;;;18.90;76.40;;;;;;5129998;27;19920;-64
2022/08/28 02:45:19;;;;;;;;;;;18.90;76.20;;;;;;5131927;27;19925;-66
2022/08/28 02:47:47;;;;;;;;;;;18.90;76.10;;;;;;5127578;27;20474;-65
2022/08/28 02:50:16;;;;;;;;;;;18.80;76.20;;;;;;5135506;27;19930;-64
2022/08/28 02:52:43;;;;;;;;;;;18.80;76.20;;;;;;5135538;27;19925;-65
2022/08/28 02:55:11;;;;;;;;;;;18.80;76.20;;;;;;5121736;27;19923;-67
2022/08/28 02:57:38;;;;;;;;;;;18.80;76.20;;;;;;5132576;27;19992;-64
2022/08/28 03:00:06;;;;;;;;;;;18.80;76.30;;;;;;5130090;27;19959;-64
2022/08/28 03:02:32;;;;;;;;;;;18.80;76.30;;;;;;5134875;27;19926;-66
2022/08/28 03:04:59;;;;;;;;;;;18.80;76.30;;;;;;5131487;27;19926;-65
2022/08/28 03:07:28;;;;;;;;;;;18.80;76.40;;;;;;5123304;27;19919;-66
2022/08/28 03:09:54;;;;;;;;;;;18.80;76.40;;;;;;5134984;27;19926;-66
2022/08/28 03:12:22;;;;;;;;;;;18.80;76.40;;;;;;5129633;27;19923;-66
2022/08/28 03:14:49;;;;;;;;;;;18.80;76.40;;;;;;5135609;27;19926;-65
2022/08/28 03:17:16;;;;;;;;;;;18.80;76.40;;;;;;5135238;27;19919;-64
2022/08/28 03:19:43;;;;;;;;;;;18.80;76.50;;;;;;5139204;27;19926;-65
2022/08/28 03:22:10;;;;;;;;;;;18.80;76.50;;;;;;5135519;27;20031;-65
2022/08/28 03:24:37;;;;;;;;;;;18.70;76.60;;;;;;5135048;27;20292;-66
2022/08/28 03:27:04;;;;;;;;;;;18.70;76.60;;;;;;5133297;27;19919;-65
2022/08/28 03:29:31;;;;;;;;;;;18.80;76.60;;;;;;5135045;27;20356;-64
2022/08/28 03:31:59;;;;;;;;;;;18.80;76.60;;;;;;5134394;27;20185;-65
2022/08/28 03:34:25;;;;;;;;;;;18.80;76.50;;;;;;5130686;27;19959;-64
2022/08/28 03:36:52;;;;;;;;;;;18.70;76.50;;;;;;5128951;27;19919;-65
2022/08/28 03:39:19;;;;;;;;;;;18.70;76.60;;;;;;5131068;27;19977;-65
2022/08/28 03:41:47;;;;;;;;;;;18.60;76.60;;;;;;5134840;27;19962;-66
2022/08/28 03:44:14;;;;;;;;;;;18.70;76.50;;;;;;5135205;27;19934;-65
2022/08/28 03:46:41;;;;;;;;;;;18.70;76.60;;;;;;5134739;27;19919;-65
2022/08/28 03:49:08;;;;;;;;;;;18.70;76.60;;;;;;5134261;27;20599;-65
2022/08/28 03:51:35;;;;;;;;;;;18.70;76.60;;;;;;5132117;27;19926;-66
2022/08/28 03:54:02;;;;;;;;;;;18.70;76.50;;;;;;5129047;27;19923;-66
2022/08/28 03:56:30;;;;;;;;;;;18.70;76.50;;;;;;5128802;27;20495;-64
2022/08/28 03:58:59;;;;;;;;;;;18.70;76.60;;;;;;5131799;27;19919;-65
2022/08/28 04:01:26;;;;;;;;;;;18.70;76.60;;;;;;5130319;27;19926;-65
2022/08/28 04:03:53;;;;;;;;;;;18.70;76.70;;;;;;5132452;27;20372;-65
2022/08/28 04:06:20;;;;;;;;;;;18.70;76.70;;;;;;5131843;27;19934;-65
2022/08/28 04:08:47;;;;;;;;;;;18.70;76.80;;;;;;5134612;27;19927;-64
2022/08/28 04:11:13;;;;;;;;;;;18.60;76.80;;;;;;5134289;27;19920;-64
2022/08/28 04:13:41;;;;;;;;;;;18.70;76.90;;;;;;5133812;27;19919;-65
2022/08/28 04:16:10;;;;;;;;;;;18.60;76.80;;;;;;5125384;27;20385;-65
2022/08/28 04:18:38;;;;;;;;;;;18.70;76.80;;;;;;5132242;27;19977;-66
2022/08/28 04:21:06;;;;;;;;;;;18.60;76.80;;;;;;5131575;27;20006;-65
2022/08/28 04:23:33;;;;;;;;;;;18.60;76.60;;;;;;5126545;27;19995;-64
2022/08/28 04:26:00;;;;;;;;;;;18.60;76.60;;;;;;5126766;27;19924;-66
2022/08/28 04:28:26;;;;;;;;;;;18.60;76.70;;;;;;5133077;27;19919;-66
2022/08/28 04:30:54;;;;;;;;;;;18.60;76.70;;;;;;5134291;27;19923;-65
2022/08/28 04:33:22;;;;;;;;;;;18.60;76.80;;;;;;5132807;27;19919;-65
2022/08/28 04:35:49;;;;;;;;;;;18.60;76.90;;;;;;5133698;27;19930;-64
2022/08/28 04:38:15;;;;;;;;;;;18.60;76.80;;;;;;5137089;27;19927;-64
2022/08/28 04:40:42;;;;;;;;;;;18.60;76.70;;;;;;5124207;27;19926;-66
2022/08/28 04:43:09;;;;;;;;;;;18.70;76.70;;;;;;5130179;27;19934;-66
2022/08/28 04:45:38;;;;;;;;;;;18.70;76.70;;;;;;5132795;27;19926;-64
2022/08/28 04:48:05;;;;;;;;;;;18.70;76.70;;;;;;5136447;27;19919;-65
2022/08/28 04:50:33;;;;;;;;;;;18.60;76.80;;;;;;5133406;27;19919;-65
2022/08/28 04:53:00;;;;;;;;;;;18.60;76.80;;;;;;5131076;27;19919;-65
2022/08/28 04:55:27;;;;;;;;;;;18.70;76.90;;;;;;5124586;27;20292;-65
2022/08/28 04:57:53;;;;;;;;;;;18.70;76.90;;;;;;5133454;27;19919;-65
2022/08/28 05:00:20;;;;;;;;;;;18.70;76.90;;;;;;5123018;27;19927;-64
2022/08/28 05:02:47;;;;;;;;;;;18.70;76.90;;;;;;5129872;27;19925;-66
2022/08/28 05:05:14;;;;;;;;;;;18.70;76.80;;;;;;5132418;27;19920;-65
2022/08/28 05:07:42;;;;;;;;;;;18.70;76.80;;;;;;5132815;27;19934;-65
2022/08/28 05:10:09;;;;;;;;;;;18.80;76.90;;;;;;5119225;27;19934;-66
2022/08/28 05:12:36;;;;;;;;;;;18.70;76.90;;;;;;5128175;27;19994;-66
2022/08/28 05:15:03;;;;;;;;;;;18.70;76.80;;;;;;5131751;27;19919;-65
2022/08/28 05:17:30;;;;;;;;;;;18.80;76.80;;;;;;5132357;27;19918;-65
2022/08/28 05:19:56;;;;;;;;;;;18.80;76.70;;;;;;5138211;27;19926;-64
2022/08/28 05:22:23;;;;;;;;;;;18.80;76.80;;;;;;5132615;27;19926;-65
2022/08/28 05:24:51;;;;;;;;;;;18.80;76.90;;;;;;5132360;27;19945;-65
2022/08/28 05:27:18;;;;;;;;;;;18.80;76.90;;;;;;5130791;27;19920;-66
2022/08/28 05:29:44;;;;;;;;;;;18.80;76.90;;;;;;5129349;27;19979;-65
2022/08/28 05:32:11;;;;;;;;;;;18.80;77.00;;;;;;5131162;27;19919;-65
2022/08/28 05:34:38;;;;;;;;;;;18.70;77.10;;;;;;5127664;27;19919;-64
2022/08/28 05:37:05;;;;;;;;;;;18.70;77.10;;;;;;5132156;27;19941;-65
2022/08/28 05:39:32;;;;;;;;;;;18.70;77.20;;;;;;5132795;27;20078;-64
2022/08/28 05:42:00;;;;;;;;;;;18.80;77.10;;;;;;5130147;27;20377;-64
2022/08/28 05:44:26;;;;;;;;;;;18.80;77.10;;;;;;5124906;27;19919;-65
2022/08/28 05:46:53;;;;;;;;;;;18.80;77.10;;;;;;5130230;27;20400;-66
2022/08/28 05:49:20;;;;;;;;;;;18.90;77.00;;;;;;5130157;27;19927;-66
2022/08/28 05:51:47;;;;;;;;;;;18.90;77.00;;;;;;5130231;27;19919;-65
2022/08/28 05:54:14;;;;;;;;;;;18.90;76.90;;;;;;5123820;27;19919;-64
2022/08/28 05:56:43;;;;;;;;;;;19.00;76.80;;;;;;5129379;27;19980;-64
2022/08/28 05:59:12;;;;;;;;;;;19.10;76.70;;;;;;5129437;27;20665;-64
2022/08/28 06:01:39;;;;;;;;;;;19.10;76.50;;;;;;5127981;27;19920;-65
2022/08/28 06:04:07;;;;;;;;;;;19.10;76.50;;;;;;5132550;27;19926;-65
2022/08/28 06:06:35;;;;;;;;;;;19.20;76.40;;;;;;5131451;27;19936;-65
2022/08/28 06:09:05;;;;;;;;;;;19.20;76.50;;;;;;5129730;27;19965;-67
2022/08/28 06:11:32;;;;;;;;;;;19.30;76.20;;;;;;5130295;27;19928;-65
2022/08/28 06:14:00;;;;;;;;;;;19.30;76.30;;;;;;5131053;27;19951;-65
2022/08/28 06:16:29;;;;;;;;;;;19.30;76.30;;;;;;5130659;27;19919;-64
2022/08/28 06:18:56;;;;;;;;;;;19.30;76.30;;;;;;5127275;27;20013;-65
2022/08/28 06:21:23;;;;;;;;;;;19.30;76.30;;;;;;5132039;27;19920;-65
2022/08/28 06:23:50;;;;;;;;;;;19.40;76.30;;;;;;5128805;27;20380;-65
2022/08/28 06:26:17;;;;;;;;;;;19.40;76.10;;;;;;5130883;27;19934;-66
2022/08/28 06:28:44;;;;;;;;;;;19.40;76.00;;;;;;5127709;27;19927;-65
2022/08/28 06:31:11;;;;;;;;;;;19.50;75.80;;;;;;5130874;27;19919;-66
2022/08/28 06:33:39;;;;;;;;;;;19.50;75.90;;;;;;5131441;27;19919;-64
2022/08/28 06:36:06;;;;;;;;;;;19.60;75.80;;;;;;5131775;27;19919;-65
2022/08/28 06:38:33;;;;;;;;;;;19.60;75.90;;;;;;5127059;27;20364;-65
2022/08/28 06:41:00;;;;;;;;;;;19.60;75.60;;;;;;5128817;27;20304;-66
2022/08/28 06:43:27;;;;;;;;;;;19.60;75.60;;;;;;5131481;27;19933;-66
2022/08/28 06:45:57;;;;;;;;;;;19.60;75.70;;;;;;5130709;27;19920;-65
2022/08/28 06:48:26;;;;;;;;;;;19.70;75.60;;;;;;5128611;27;19919;-65
2022/08/28 06:50:55;;;;;;;;;;;19.80;75.50;;;;;;5130263;27;20305;-66
2022/08/28 06:53:23;;;;;;;;;;;19.90;75.10;;;;;;5131481;27;19972;-66
2022/08/28 06:56:00;;;;;;;;;;;20.00;74.90;;;;;;5129598;27;20384;-65
2022/08/28 06:58:28;;;;;;;;;;;20.10;74.70;;;;;;5126795;27;20292;-66
2022/08/28 07:01:03;;;;;;;;;;;20.30;74.50;;;;;;5128409;27;20353;-66
2022/08/28 07:03:30;;;;;;;;;;;20.40;74.30;;;;;;5128529;27;19973;-67
2022/08/28 07:05:59;;;;;;;;;;;20.50;74.00;;;;;;5127296;27;20269;-65
2022/08/28 07:08:26;;;;;;;;;;;20.60;73.50;;;;;;5130318;27;19919;-66
2022/08/28 07:10:53;;;;;;;;;;;20.60;73.10;;;;;;5131279;27;19919;-66
2022/08/28 07:13:20;;;;;;;;;;;20.60;72.80;;;;;;5127411;27;19926;-67
2022/08/28 07:15:47;;;;;;;;;;;20.50;72.50;;;;;;5126331;27;19966;-66
2022/08/28 07:18:16;;;;;;;;;;;20.60;72.70;;;;;;5128259;27;19972;-67
2022/08/28 07:20:42;;;;;;;;;;;20.50;72.10;;;;;;5128925;27;19923;-66
2022/08/28 07:23:11;;;;;;;;;;;20.60;72.20;;;;;;5128366;27;19964;-65
2022/08/28 07:25:39;;;;;;;;;;;20.60;71.30;;;;;;5130913;27;20332;-66
2022/08/28 07:28:06;;;;;;;;;;;20.60;71.50;;;;;;5130840;27;19919;-66
2022/08/28 07:30:32;;;;;;;;;;;20.70;71.30;;;;;;5128741;27;19975;-65
2022/08/28 07:32:59;;;;;;;;;;;20.60;71.00;;;;;;5122991;27;20268;-66
2022/08/28 07:35:26;;;;;;;;;;;20.60;70.80;;;;;;5134154;27;19926;-67
2022/08/28 07:37:52;;;;;;;;;;;20.60;70.60;;;;;;5134342;27;19948;-66
2022/08/28 07:40:21;;;;;;;;;;;20.70;70.60;;;;;;5126854;27;20419;-64
2022/08/28 07:45:32;;;;;;;;;;;20.80;70.00;;;;;;5133354;27;19927;-67
2022/08/28 07:47:59;;;;;;;;;;;21.10;69.80;;;;;;5124701;27;19926;-66
2022/08/28 07:50:26;;;;;;;;;;;21.20;69.50;;;;;;5128016;27;19926;-66
2022/08/28 07:52:52;;;;;;;;;;;21.30;69.40;;;;;;5134784;27;20295;-65
2022/08/28 07:55:21;;;;;;;;;;;21.30;68.90;;;;;;5130020;27;19920;-65
2022/08/28 07:57:48;;;;;;;;;;;21.60;68.50;;;;;;5134321;27;19945;-65
2022/08/28 08:00:16;;;;;;;;;;;21.70;67.90;;;;;;5128807;27;20367;-65
2022/08/28 08:02:43;;;;;;;;;;;21.90;68.10;;;;;;5128911;27;19928;-64
2022/08/28 08:05:10;;;;;;;;;;;22.10;67.00;;;;;;5132930;27;19927;-66
2022/08/28 08:07:38;;;;;;;;;;;22.10;66.60;;;;;;5133882;27;19919;-66
2022/08/28 08:10:06;;;;;;;;;;;22.10;65.70;;;;;;5134418;27;19926;-65
2022/08/28 08:12:35;;;;;;;;;;;22.30;65.60;;;;;;5132757;27;19973;-66
2022/08/28 08:15:02;;;;;;;;;;;22.40;64.80;;;;;;5131806;27;20394;-66
2022/08/28 08:17:29;;;;;;;;;;;22.50;64.70;;;;;;5132778;27;19934;-66
2022/08/28 08:19:55;;;;;;;;;;;22.50;64.20;;;;;;5133777;27;20014;-65
2022/08/28 08:22:24;;;;;;;;;;;22.40;64.70;;;;;;5128682;27;19927;-66
2022/08/28 08:24:53;;;;;;;;;;;22.50;64.40;;;;;;5122813;27;19919;-67
2022/08/28 08:27:20;;;;;;;;;;;22.70;64.10;;;;;;5131884;27;20370;-64
2022/08/28 08:29:49;;;;;;;;;;;22.90;63.60;;;;;;5133453;27;19927;-65
2022/08/28 08:32:16;;;;;;;;;;;23.00;63.00;;;;;;5127918;27;20451;-66
2022/08/28 08:34:44;;;;;;;;;;;23.10;62.70;;;;;;5122541;27;20341;-65
2022/08/28 08:37:12;;;;;;;;;;;23.30;62.50;;;;;;5133879;27;19954;-65
2022/08/28 08:39:40;;;;;;;;;;;23.30;62.30;;;;;;5128149;27;20415;-65
2022/08/28 08:42:09;;;;;;;;;;;23.30;62.10;;;;;;5125363;27;19955;-65
2022/08/28 08:44:39;;;;;;;;;;;23.20;61.40;;;;;;5136747;27;19925;-66
2022/08/28 08:47:09;;;;;;;;;;;23.10;61.10;;;;;;5132525;27;19951;-65
2022/08/28 08:49:38;;;;;;;;;;;23.00;61.10;;;;;;5132850;27;20322;-64
2022/08/28 08:52:19;;;;;;;;;;;23.00;60.70;;;;;;5126690;27;19919;-66
2022/08/28 08:54:54;;;;;;;;;;;23.30;60.50;;;;;;5130600;27;19927;-66
2022/08/28 08:57:21;;;;;;;;;;;23.50;59.90;;;;;;5125653;27;20021;-64
2022/08/28 08:59:49;;;;;;;;;;;23.70;59.80;;;;;;5133420;27;19968;-65
2022/08/28 09:02:21;;;;;;;;;;;23.90;59.50;;;;;;5129280;27;20354;-66
2022/08/28 09:04:52;;;;;;;;;;;23.90;58.50;;;;;;5128800;27;19919;-67
2022/08/28 09:07:20;;;;;;;;;;;24.10;58.70;;;;;;5128841;27;19919;-66
2022/08/28 09:09:48;;;;;;;;;;;24.30;58.10;;;;;;5128461;27;19920;-64
2022/08/28 09:12:17;;;;;;;;;;;24.50;57.90;;;;;;5133834;27;19919;-64
2022/08/28 09:14:49;;;;;;;;;;;24.50;57.50;;;;;;5127008;27;19923;-66
2022/08/28 09:17:17;;;;;;;;;;;24.20;57.50;;;;;;5131346;27;19932;-63
2022/08/28 09:19:45;;;;;;;;;;;24.10;57.40;;;;;;5122484;27;19919;-64
2022/08/28 09:22:12;;;;;;;;;;;23.90;57.70;;;;;;5127414;27;19927;-64
2022/08/28 09:24:40;;;;;;;;;;;24.00;57.70;;;;;;5131714;27;20480;-64
2022/08/28 09:27:08;;;;;;;;;;;24.10;57.60;;;;;;5121955;27;19926;-64
2022/08/28 09:29:36;;;;;;;;;;;24.10;57.40;;;;;;5134574;27;19935;-64
2022/08/28 09:32:16;;;;;;;;;;;24.10;57.00;;;;;;5128458;27;19935;-65
2022/08/28 09:34:58;;;;;;;;;;;24.00;56.20;;;;;;5132836;27;20380;-64
2022/08/28 09:37:26;;;;;;;;;;;24.10;55.90;;;;;;5128066;27;19919;-64
2022/08/28 09:40:12;;;;;;;;;;;24.30;54.50;;;;;;5128568;27;19923;-65
2022/08/28 09:45:24;;;;;;;;;;;24.70;55.00;;;;;;5121898;27;19923;-66
2022/08/28 09:47:51;;;;;;;;;;;24.90;54.20;;;;;;5128487;27;19919;-66
2022/08/28 09:50:21;;;;;;;;;;;25.00;54.80;;;;;;5130890;27;19926;-65
2022/08/28 09:52:48;;;;;;;;;;;25.10;54.40;;;;;;5122562;27;19972;-66
2022/08/28 09:55:21;;;;;;;;;;;25.00;53.20;;;;;;5120290;27;19920;-67
2022/08/28 09:57:48;;;;;;;;;;;24.90;53.10;;;;;;5131396;27;19926;-66
2022/08/28 10:00:15;;;;;;;;;;;24.90;53.10;;;;;;5120687;27;19920;-65
2022/08/28 10:02:45;;;;;;;;;;;24.80;52.70;;;;;;5127527;27;19927;-66
2022/08/28 10:05:15;;;;;;;;;;;24.90;52.70;;;;;;5132068;27;20293;-66
2022/08/28 10:07:46;;;;;;;;;;;25.10;52.60;;;;;;5131827;27;19926;-65
2022/08/28 10:10:17;;;;;;;;;;;25.20;51.90;;;;;;5129140;27;19933;-65
2022/08/28 10:12:49;;;;;;;;;;;25.10;52.00;;;;;;5122137;27;19931;-66
2022/08/28 10:15:17;;;;;;;;;;;25.10;51.80;;;;;;5132275;27;19981;-66
2022/08/28 10:17:50;;;;;;;;;;;25.20;51.90;;;;;;5123624;27;20375;-65
2022/08/28 10:20:22;;;;;;;;;;;25.30;51.70;;;;;;5119329;27;19926;-66
2022/08/28 10:22:54;;;;;;;;;;;25.50;51.30;;;;;;5120846;27;20404;-66
2022/08/28 10:25:24;;;;;;;;;;;25.60;51.30;;;;;;5131112;27;20039;-66
2022/08/28 10:27:56;;;;;;;;;;;25.70;50.20;;;;;;5126966;27;19930;-67
2022/08/28 10:30:23;;;;;;;;;;;25.70;51.10;;;;;;5129717;27;20384;-66
2022/08/28 10:32:59;;;;;;;;;;;25.90;50.50;;;;;;5130902;27;19919;-67
2022/08/28 10:35:31;;;;;;;;;;;25.80;49.10;;;;;;5129125;27;19926;-66
2022/08/28 10:38:02;;;;;;;;;;;25.60;49.60;;;;;;5127323;27;19919;-66
2022/08/28 10:40:30;;;;;;;;;;;25.60;50.00;;;;;;5121339;27;19927;-66
2022/08/28 10:43:01;;;;;;;;;;;25.60;49.50;;;;;;5138300;27;19923;-65
2022/08/28 10:45:30;;;;;;;;;;;25.70;49.50;;;;;;5119329;27;19998;-65
2022/08/28 10:47:58;;;;;;;;;;;25.80;49.30;;;;;;5119595;27;19976;-65
2022/08/28 10:50:27;;;;;;;;;;;26.00;48.80;;;;;;5127957;27;19924;-66
2022/08/28 10:52:57;;;;;;;;;;;26.10;49.00;;;;;;5128490;27;19962;-66
2022/08/28 10:55:28;;;;;;;;;;;26.10;48.60;;;;;;5130880;27;19923;-65
2022/08/28 10:57:57;;;;;;;;;;;26.10;48.70;;;;;;5131623;28;19919;-67
2022/08/28 11:00:25;;;;;;;;;;;26.10;48.60;;;;;;5128909;28;20021;-67
2022/08/28 11:02:53;;;;;;;;;;;26.20;48.60;;;;;;5128865;27;20376;-66
2022/08/28 11:05:22;;;;;;;;;;;26.30;49.00;;;;;;5131585;28;19929;-66
2022/08/28 11:07:51;;;;;;;;;;;26.50;46.80;;;;;;5131480;27;19926;-66
2022/08/28 11:10:20;;;;;;;;;;;26.60;46.20;;;;;;5132928;27;20011;-67
2022/08/28 11:12:50;;;;;;;;;;;26.60;46.60;;;;;;5131667;27;19919;-66
2022/08/28 11:15:38;;;;;;;;;;;26.60;47.90;;;;;;5136352;27;19919;-67
2022/08/28 11:18:24;;;;;;;;;;;26.60;48.10;;;;;;5129017;27;19923;-66
2022/08/28 11:20:56;;;;;;;;;;;26.60;47.60;;;;;;5133269;27;19919;-66
2022/08/28 11:23:28;;;;;;;;;;;26.60;47.10;;;;;;5135642;27;19919;-66
2022/08/28 11:25:57;;;;;;;;;;;26.50;47.10;;;;;;5130642;27;20356;-66
2022/08/28 11:28:38;;;;;;;;;;;26.30;47.20;;;;;;5133932;27;19927;-66
2022/08/28 11:31:28;;;;;;;;;;;26.10;47.00;;;;;;5131493;27;20678;-65
2022/08/28 11:33:57;;;;;;;;;;;26.10;47.40;;;;;;5128699;27;19919;-66
2022/08/28 11:36:43;;;;;;;;;;;26.20;48.10;;;;;;5135052;27;19958;-66
2022/08/28 11:39:18;;;;;;;;;;;26.40;47.10;;;;;;5125227;27;19927;-66
2022/08/28 11:42:00;;;;;;;;;;;26.50;47.30;;;;;;5133488;27;19923;-65
2022/08/28 11:44:37;;;;;;;;;;;26.50;47.50;;;;;;5130008;27;19926;-65
2022/08/28 11:47:19;;;;;;;;;;;26.60;46.90;;;;;;5118343;27;19959;-65
2022/08/28 11:49:47;;;;;;;;;;;26.60;46.80;;;;;;5118511;27;19923;-65
2022/08/28 11:52:25;;;;;;;;;;;26.80;46.10;;;;;;5134735;27;19923;-66
2022/08/28 11:54:56;;;;;;;;;;;26.80;46.20;;;;;;5132923;27;19926;-67
2022/08/28 11:57:25;;;;;;;;;;;26.90;46.30;;;;;;5135161;27;19927;-66
2022/08/28 12:00:02;;;;;;;;;;;26.90;46.20;;;;;;5134558;27;20044;-66
2022/08/28 12:02:46;;;;;;;;;;;26.90;46.20;;;;;;5132940;27;19949;-67
2022/08/28 12:05:28;;;;;;;;;;;27.00;46.10;;;;;;5131412;27;19926;-65
2022/08/28 12:07:56;;;;;;;;;;;27.00;46.30;;;;;;5134425;27;19919;-65
2022/08/28 12:10:43;;;;;;;;;;;26.90;47.00;;;;;;5128144;27;19942;-66
2022/08/28 12:13:30;;;;;;;;;;;26.90;46.70;;;;;;5132871;27;19943;-67
2022/08/28 12:16:02;;;;;;;;;;;26.90;46.40;;;;;;5131341;27;20300;-65
2022/08/28 12:18:48;;;;;;;;;;;26.90;46.00;;;;;;5134216;27;19927;-66
2022/08/28 12:21:17;;;;;;;;;;;27.00;45.80;;;;;;5129758;27;19923;-66
2022/08/28 12:23:55;;;;;;;;;;;26.90;45.90;;;;;;5132895;27;19988;-65
2022/08/28 12:26:23;;;;;;;;;;;26.90;45.30;;;;;;5139314;27;19925;-66
2022/08/28 12:28:51;;;;;;;;;;;27.00;44.80;;;;;;5137279;27;19930;-66
2022/08/28 12:34:22;;;;;;;;;;;26.90;44.70;;;;;;5125891;27;19926;-65
2022/08/28 12:36:55;;;;;;;;;;;26.80;45.10;;;;;;5132990;27;19950;-67
2022/08/28 12:39:23;;;;;;;;;;;26.60;45.30;;;;;;5130113;27;19919;-67
2022/08/28 12:41:49;;;;;;;;;;;26.50;46.20;;;;;;5132117;27;20304;-67
2022/08/28 12:44:16;;;;;;;;;;;26.60;46.00;;;;;;5134723;27;19920;-67
2022/08/28 12:46:43;;;;;;;;;;;26.60;46.00;;;;;;5127956;27;19929;-66
2022/08/28 12:49:27;;;;;;;;;;;26.50;46.10;;;;;;5133682;27;20589;-66
2022/08/28 12:52:06;;;;;;;;;;;26.40;46.00;;;;;;5132230;27;19926;-67
2022/08/28 12:54:34;;;;;;;;;;;26.30;46.40;;;;;;5130786;27;19923;-65
2022/08/28 12:57:03;;;;;;;;;;;26.30;46.70;;;;;;5133595;27;20026;-67
2022/08/28 12:59:34;;;;;;;;;;;26.40;45.80;;;;;;5132851;27;19928;-67
2022/08/28 13:02:01;;;;;;;;;;;26.40;46.50;;;;;;5127720;27;19920;-67
2022/08/28 13:04:31;;;;;;;;;;;26.50;46.40;;;;;;5126805;27;19972;-67
2022/08/28 13:07:01;;;;;;;;;;;26.50;45.50;;;;;;5137872;27;20384;-67
2022/08/28 13:09:29;;;;;;;;;;;26.50;45.00;;;;;;5129822;27;20017;-68
2022/08/28 13:11:57;;;;;;;;;;;26.60;45.10;;;;;;5131008;27;20329;-67
2022/08/28 13:14:40;;;;;;;;;;;26.60;45.40;;;;;;5136096;27;19926;-67
2022/08/28 13:17:07;;;;;;;;;;;26.60;45.40;;;;;;5129518;27;19947;-67
2022/08/28 13:19:35;;;;;;;;;;;26.50;45.30;;;;;;5130246;27;20026;-67
2022/08/28 13:22:02;;;;;;;;;;;26.50;46.10;;;;;;5122321;27;19923;-67
2022/08/28 13:24:41;;;;;;;;;;;26.50;45.70;;;;;;5133121;27;19923;-67
2022/08/28 13:27:17;;;;;;;;;;;26.40;45.60;;;;;;5128892;27;20369;-65
2022/08/28 13:29:55;;;;;;;;;;;26.40;45.40;;;;;;5130212;27;19923;-67
2022/08/28 13:32:21;;;;;;;;;;;26.40;46.10;;;;;;5130697;27;19930;-67
2022/08/28 13:35:03;;;;;;;;;;;26.40;44.90;;;;;;5132354;27;19930;-66
2022/08/28 13:37:40;;;;;;;;;;;26.40;44.60;;;;;;5128085;27;19920;-66
2022/08/28 13:40:08;;;;;;;;;;;26.40;45.00;;;;;;5131493;27;19928;-66
2022/08/28 13:42:36;;;;;;;;;;;26.30;44.50;;;;;;5128450;27;19942;-66
2022/08/28 13:45:03;;;;;;;;;;;26.30;43.70;;;;;;5129396;27;19992;-67
2022/08/28 13:47:30;;;;;;;;;;;26.30;44.20;;;;;;5128421;27;19919;-66
2022/08/28 13:49:57;;;;;;;;;;;26.20;43.70;;;;;;5132186;27;19919;-66
2022/08/28 13:52:24;;;;;;;;;;;26.20;43.60;;;;;;5129271;27;19920;-65
2022/08/28 13:54:51;;;;;;;;;;;26.20;43.30;;;;;;5138174;27;20483;-66
2022/08/28 13:57:18;;;;;;;;;;;26.20;43.60;;;;;;5132333;27;19920;-66
2022/08/28 13:59:46;;;;;;;;;;;26.20;43.30;;;;;;5131923;27;20018;-66
2022/08/28 14:04:58;;;;;;;;;;;26.10;43.70;;;;;;5118423;27;20397;-66
2022/08/28 14:07:24;;;;;;;;;;;26.10;42.70;;;;;;5130144;27;19930;-66
2022/08/28 14:09:51;;;;;;;;;;;26.10;42.70;;;;;;5129729;27;20018;-66
2022/08/28 14:12:18;;;;;;;;;;;26.00;42.50;;;;;;5131704;27;20359;-66
2022/08/28 14:14:47;;;;;;;;;;;26.00;42.10;;;;;;5132102;27;20146;-66
2022/08/28 14:17:14;;;;;;;;;;;26.00;41.70;;;;;;5131614;27;19919;-66
2022/08/28 14:19:41;;;;;;;;;;;26.00;41.70;;;;;;5119700;27;20310;-66
2022/08/28 14:22:08;;;;;;;;;;;26.00;41.50;;;;;;5125957;27;19919;-67
2022/08/28 14:24:34;;;;;;;;;;;26.00;41.60;;;;;;5129512;27;19926;-67
2022/08/28 14:27:01;;;;;;;;;;;26.00;41.10;;;;;;5130898;27;19919;-67
2022/08/28 14:29:30;;;;;;;;;;;25.90;41.30;;;;;;5131607;27;20269;-65
2022/08/28 14:31:58;;;;;;;;;;;25.90;42.50;;;;;;5131339;27;19968;-66
2022/08/28 14:34:25;;;;;;;;;;;25.80;41.40;;;;;;5130218;27;20317;-65
2022/08/28 14:36:54;;;;;;;;;;;25.80;41.20;;;;;;5128271;27;19919;-66
2022/08/28 14:39:21;;;;;;;;;;;25.80;41.00;;;;;;5125035;27;19927;-66